sensor_id;sensor_type;location;lat;lon;timestamp;temperature;humidity
35647;DHT22;28680;45.642;13.756;2023-12-04T00:00:26;4.10;99.90
35647;DHT22;28680;45.642;13.756;2023-12-04T00:02:52;4.10;99.90
35647;DHT22;28680;45.642;13.756;2023-12-04T00:05:18;4.10;99.90
35647;DHT22;28680;45.642;13.756;2023-12-04T00:07:44;4.00;99.90
35647;DHT22;28680;45.642;13.756;2023-12-04T00:10:09;4.00;99.90
35647;DHT22;28680;45.642;13.756;2023-12-04T00:12:35;4.00;99.90
35647;DHT22;28680;45.642;13.756;2023-12-04T00:15:01;4.00;99.90
35647;DHT22;28680;45.642;13.756;2023-12-04T00:17:27;4.00;99.90
35647;DHT22;28680;45.642;13.756;2023-12-04T00:19:53;4.00;99.90
35647;DHT22;28680;45.642;13.756;2023-12-04T00:22:18;4.00;99.90
35647;DHT22;28680;45.642;13.756;2023-12-04T00:24:44;4.00;99.90
35647;DHT22;28680;45.642;13.756;2023-12-04T00:27:10;4.00;99.90
35647;DHT22;28680;45.642;13.756;2023-12-04T00:29:36;3.90;99.90
35647;DHT22;28680;45.642;13.756;2023-12-04T00:32:03;3.80;99.90
35647;DHT22;28680;45.642;13.756;2023-12-04T00:34:29;3.80;99.90
35647;DHT22;28680;45.642;13.756;2023-12-04T00:36:55;3.80;99.90
35647;DHT22;28680;45.642;13.756;2023-12-04T00:39:20;3.90;99.90
35647;DHT22;28680;45.642;13.756;2023-12-04T00:41:46;3.90;99.90
35647;DHT22;28680;45.642;13.756;2023-12-04T00:44:12;3.90;99.90
35647;DHT22;28680;45.642;13.756;2023-12-04T00:46:38;3.90;99.90
35647;DHT22;28680;45.642;13.756;2023-12-04T00:49:03;3.90;99.90
35647;DHT22;28680;45.642;13.756;2023-12-04T00:51:36;3.80;99.90
35647;DHT22;28680;45.642;13.756;2023-12-04T00:54:02;3.80;99.90
35647;DHT22;28680;45.642;13.756;2023-12-04T00:56:28;3.70;99.90
35647;DHT22;28680;45.642;13.756;2023-12-04T00:58:54;3.60;99.90
35647;DHT22;28680;45.642;13.756;2023-12-04T01:01:19;3.60;99.90
35647;DHT22;28680;45.642;13.756;2023-12-04T01:03:45;3.60;99.90
35647;DHT22;28680;45.642;13.756;2023-12-04T01:06:20;3.70;99.90
35647;DHT22;28680;45.642;13.756;2023-12-04T01:08:47;3.60;99.90
35647;DHT22;28680;45.642;13.756;2023-12-04T01:11:14;3.70;99.90
35647;DHT22;28680;45.642;13.756;2023-12-04T01:13:40;3.60;99.90
35647;DHT22;28680;45.642;13.756;2023-12-04T01:16:06;3.50;99.90
35647;DHT22;28680;45.642;13.756;2023-12-04T01:18:32;3.60;99.90
35647;DHT22;28680;45.642;13.756;2023-12-04T01:20:58;3.60;99.90
35647;DHT22;28680;45.642;13.756;2023-12-04T01:23:24;3.60;99.90
35647;DHT22;28680;45.642;13.756;2023-12-04T01:25:50;3.50;99.90
35647;DHT22;28680;45.642;13.756;2023-12-04T01:28:16;3.40;99.90
35647;DHT22;28680;45.642;13.756;2023-12-04T01:30:42;3.30;99.90
35647;DHT22;28680;45.642;13.756;2023-12-04T01:33:07;3.30;99.90
35647;DHT22;28680;45.642;13.756;2023-12-04T01:35:34;3.30;99.90
35647;DHT22;28680;45.642;13.756;2023-12-04T01:37:59;3.20;99.90
35647;DHT22;28680;45.642;13.756;2023-12-04T01:40:26;3.20;99.90
35647;DHT22;28680;45.642;13.756;2023-12-04T01:42:52;3.20;99.90
35647;DHT22;28680;45.642;13.756;2023-12-04T01:45:18;3.20;99.90
35647;DHT22;28680;45.642;13.756;2023-12-04T01:47:45;3.00;99.90
35647;DHT22;28680;45.642;13.756;2023-12-04T01:50:12;3.10;99.90
35647;DHT22;28680;45.642;13.756;2023-12-04T01:52:39;3.20;99.90
35647;DHT22;28680;45.642;13.756;2023-12-04T01:55:06;3.10;99.90
35647;DHT22;28680;45.642;13.756;2023-12-04T01:57:33;3.10;99.90
35647;DHT22;28680;45.642;13.756;2023-12-04T01:59:59;3.00;99.90
35647;DHT22;28680;45.642;13.756;2023-12-04T02:02:26;3.00;99.90
35647;DHT22;28680;45.642;13.756;2023-12-04T02:04:55;3.00;99.90
35647;DHT22;28680;45.642;13.756;2023-12-04T02:07:21;3.10;99.90
35647;DHT22;28680;45.642;13.756;2023-12-04T02:09:47;3.10;99.90
35647;DHT22;28680;45.642;13.756;2023-12-04T02:12:12;3.10;99.90
35647;DHT22;28680;45.642;13.756;2023-12-04T02:14:38;3.00;99.90
35647;DHT22;28680;45.642;13.756;2023-12-04T02:17:05;3.00;99.90
35647;DHT22;28680;45.642;13.756;2023-12-04T02:19:32;3.00;99.90
35647;DHT22;28680;45.642;13.756;2023-12-04T02:21:58;3.00;99.90
35647;DHT22;28680;45.642;13.756;2023-12-04T02:24:24;3.00;99.90
35647;DHT22;28680;45.642;13.756;2023-12-04T02:29:40;3.10;99.90
35647;DHT22;28680;45.642;13.756;2023-12-04T02:32:11;3.00;99.90
35647;DHT22;28680;45.642;13.756;2023-12-04T02:34:40;3.10;99.90
35647;DHT22;28680;45.642;13.756;2023-12-04T02:37:08;3.10;99.90
35647;DHT22;28680;45.642;13.756;2023-12-04T02:39:36;3.10;99.90
35647;DHT22;28680;45.642;13.756;2023-12-04T02:42:02;3.00;99.90
35647;DHT22;28680;45.642;13.756;2023-12-04T02:44:28;3.00;99.90
35647;DHT22;28680;45.642;13.756;2023-12-04T02:46:54;3.00;99.90
35647;DHT22;28680;45.642;13.756;2023-12-04T02:49:20;3.00;99.90
35647;DHT22;28680;45.642;13.756;2023-12-04T02:51:46;3.00;99.90
35647;DHT22;28680;45.642;13.756;2023-12-04T02:54:11;2.90;99.90
35647;DHT22;28680;45.642;13.756;2023-12-04T02:56:37;2.80;99.90
35647;DHT22;28680;45.642;13.756;2023-12-04T02:59:03;2.70;99.90
35647;DHT22;28680;45.642;13.756;2023-12-04T03:01:29;2.70;99.90
35647;DHT22;28680;45.642;13.756;2023-12-04T03:03:54;2.70;99.90
35647;DHT22;28680;45.642;13.756;2023-12-04T03:06:20;2.70;99.90
35647;DHT22;28680;45.642;13.756;2023-12-04T03:08:46;2.70;99.90
35647;DHT22;28680;45.642;13.756;2023-12-04T03:11:12;2.60;99.90
35647;DHT22;28680;45.642;13.756;2023-12-04T03:13:38;2.70;99.90
35647;DHT22;28680;45.642;13.756;2023-12-04T03:16:04;2.70;99.90
35647;DHT22;28680;45.642;13.756;2023-12-04T03:18:30;2.70;99.90
35647;DHT22;28680;45.642;13.756;2023-12-04T03:20:56;2.80;99.90
35647;DHT22;28680;45.642;13.756;2023-12-04T03:23:21;2.90;99.90
35647;DHT22;28680;45.642;13.756;2023-12-04T03:25:47;2.90;99.90
35647;DHT22;28680;45.642;13.756;2023-12-04T03:28:13;2.80;99.90
35647;DHT22;28680;45.642;13.756;2023-12-04T03:30:41;2.80;99.90
35647;DHT22;28680;45.642;13.756;2023-12-04T03:33:11;2.80;99.90
35647;DHT22;28680;45.642;13.756;2023-12-04T03:35:36;2.90;99.90
35647;DHT22;28680;45.642;13.756;2023-12-04T03:38:02;3.00;99.90
35647;DHT22;28680;45.642;13.756;2023-12-04T03:40:28;3.00;99.90
35647;DHT22;28680;45.642;13.756;2023-12-04T03:42:54;3.00;99.90
35647;DHT22;28680;45.642;13.756;2023-12-04T03:45:19;2.90;99.90
35647;DHT22;28680;45.642;13.756;2023-12-04T03:47:45;2.80;99.90
35647;DHT22;28680;45.642;13.756;2023-12-04T03:50:11;2.70;99.90
35647;DHT22;28680;45.642;13.756;2023-12-04T03:52:37;2.70;99.90
35647;DHT22;28680;45.642;13.756;2023-12-04T03:55:03;2.70;99.90
35647;DHT22;28680;45.642;13.756;2023-12-04T03:57:29;2.70;99.90
35647;DHT22;28680;45.642;13.756;2023-12-04T03:59:55;2.60;99.90
35647;DHT22;28680;45.642;13.756;2023-12-04T04:02:21;2.60;99.90
35647;DHT22;28680;45.642;13.756;2023-12-04T04:04:46;2.70;99.90
35647;DHT22;28680;45.642;13.756;2023-12-04T04:07:13;2.80;99.90
35647;DHT22;28680;45.642;13.756;2023-12-04T04:09:39;2.90;99.90
35647;DHT22;28680;45.642;13.756;2023-12-04T04:12:05;2.90;99.90
35647;DHT22;28680;45.642;13.756;2023-12-04T04:14:31;2.90;99.90
35647;DHT22;28680;45.642;13.756;2023-12-04T04:16:56;2.80;99.90
35647;DHT22;28680;45.642;13.756;2023-12-04T04:19:22;2.70;99.90
35647;DHT22;28680;45.642;13.756;2023-12-04T04:21:48;2.50;99.90
35647;DHT22;28680;45.642;13.756;2023-12-04T04:24:14;2.50;99.90
35647;DHT22;28680;45.642;13.756;2023-12-04T04:26:39;2.50;99.90
35647;DHT22;28680;45.642;13.756;2023-12-04T04:29:05;2.50;99.90
35647;DHT22;28680;45.642;13.756;2023-12-04T04:31:31;2.50;99.90
35647;DHT22;28680;45.642;13.756;2023-12-04T04:33:56;2.40;99.90
35647;DHT22;28680;45.642;13.756;2023-12-04T04:36:22;2.40;99.90
35647;DHT22;28680;45.642;13.756;2023-12-04T04:38:48;2.50;99.90
35647;DHT22;28680;45.642;13.756;2023-12-04T04:41:14;2.50;99.90
35647;DHT22;28680;45.642;13.756;2023-12-04T04:43:43;2.50;99.90
35647;DHT22;28680;45.642;13.756;2023-12-04T04:46:09;2.50;99.90
35647;DHT22;28680;45.642;13.756;2023-12-04T04:48:35;2.40;99.90
35647;DHT22;28680;45.642;13.756;2023-12-04T04:51:01;2.40;99.90
35647;DHT22;28680;45.642;13.756;2023-12-04T04:53:26;2.50;99.90
35647;DHT22;28680;45.642;13.756;2023-12-04T04:55:53;2.40;99.90
35647;DHT22;28680;45.642;13.756;2023-12-04T04:58:19;2.40;99.90
35647;DHT22;28680;45.642;13.756;2023-12-04T05:00:46;2.40;99.90
35647;DHT22;28680;45.642;13.756;2023-12-04T05:03:12;2.40;99.90
35647;DHT22;28680;45.642;13.756;2023-12-04T05:05:38;2.40;99.90
35647;DHT22;28680;45.642;13.756;2023-12-04T05:08:04;2.40;99.90
35647;DHT22;28680;45.642;13.756;2023-12-04T05:10:30;2.40;99.90
35647;DHT22;28680;45.642;13.756;2023-12-04T05:12:56;2.40;99.90
35647;DHT22;28680;45.642;13.756;2023-12-04T05:15:21;2.50;99.90
35647;DHT22;28680;45.642;13.756;2023-12-04T05:17:47;2.40;99.90
35647;DHT22;28680;45.642;13.756;2023-12-04T05:20:13;2.40;99.90
35647;DHT22;28680;45.642;13.756;2023-12-04T05:22:40;2.30;99.90
35647;DHT22;28680;45.642;13.756;2023-12-04T05:25:06;2.30;99.90
35647;DHT22;28680;45.642;13.756;2023-12-04T05:27:32;2.20;99.90
35647;DHT22;28680;45.642;13.756;2023-12-04T05:29:58;2.20;99.90
35647;DHT22;28680;45.642;13.756;2023-12-04T05:32:23;2.20;99.90
35647;DHT22;28680;45.642;13.756;2023-12-04T05:34:49;2.20;99.90
35647;DHT22;28680;45.642;13.756;2023-12-04T05:37:15;2.20;99.90
35647;DHT22;28680;45.642;13.756;2023-12-04T05:39:41;2.20;99.90
35647;DHT22;28680;45.642;13.756;2023-12-04T05:42:07;2.10;99.90
35647;DHT22;28680;45.642;13.756;2023-12-04T05:44:34;2.10;99.90
35647;DHT22;28680;45.642;13.756;2023-12-04T05:47:00;2.20;99.90
35647;DHT22;28680;45.642;13.756;2023-12-04T05:49:26;2.20;99.90
35647;DHT22;28680;45.642;13.756;2023-12-04T05:51:54;2.10;99.90
35647;DHT22;28680;45.642;13.756;2023-12-04T05:54:20;2.10;99.90
35647;DHT22;28680;45.642;13.756;2023-12-04T05:56:46;2.20;99.90
35647;DHT22;28680;45.642;13.756;2023-12-04T05:59:12;2.10;99.90
35647;DHT22;28680;45.642;13.756;2023-12-04T06:01:38;2.10;99.90
35647;DHT22;28680;45.642;13.756;2023-12-04T06:04:03;2.00;99.90
35647;DHT22;28680;45.642;13.756;2023-12-04T06:06:29;2.00;99.90
35647;DHT22;28680;45.642;13.756;2023-12-04T06:08:55;2.00;99.90
35647;DHT22;28680;45.642;13.756;2023-12-04T06:11:21;2.10;99.90
35647;DHT22;28680;45.642;13.756;2023-12-04T06:13:47;2.10;99.90
35647;DHT22;28680;45.642;13.756;2023-12-04T06:16:13;2.10;99.90
35647;DHT22;28680;45.642;13.756;2023-12-04T06:18:39;2.00;99.90
35647;DHT22;28680;45.642;13.756;2023-12-04T06:21:05;2.00;99.90
35647;DHT22;28680;45.642;13.756;2023-12-04T06:23:32;2.00;99.90
35647;DHT22;28680;45.642;13.756;2023-12-04T06:25:58;2.00;99.90
35647;DHT22;28680;45.642;13.756;2023-12-04T06:28:24;2.10;99.90
35647;DHT22;28680;45.642;13.756;2023-12-04T06:30:50;2.10;99.90
35647;DHT22;28680;45.642;13.756;2023-12-04T06:33:16;2.10;99.90
35647;DHT22;28680;45.642;13.756;2023-12-04T06:35:44;2.10;99.90
35647;DHT22;28680;45.642;13.756;2023-12-04T06:38:12;2.30;99.90
35647;DHT22;28680;45.642;13.756;2023-12-04T06:40:40;2.40;99.90
35647;DHT22;28680;45.642;13.756;2023-12-04T06:43:06;2.50;99.90
35647;DHT22;28680;45.642;13.756;2023-12-04T06:45:33;2.50;99.90
35647;DHT22;28680;45.642;13.756;2023-12-04T06:47:59;2.50;99.90
35647;DHT22;28680;45.642;13.756;2023-12-04T06:50:26;2.40;99.90
35647;DHT22;28680;45.642;13.756;2023-12-04T06:52:52;2.40;99.90
35647;DHT22;28680;45.642;13.756;2023-12-04T06:55:18;2.40;99.90
35647;DHT22;28680;45.642;13.756;2023-12-04T06:57:44;2.40;99.90
35647;DHT22;28680;45.642;13.756;2023-12-04T07:00:10;2.40;99.90
35647;DHT22;28680;45.642;13.756;2023-12-04T07:02:40;2.50;99.90
35647;DHT22;28680;45.642;13.756;2023-12-04T07:05:06;2.70;99.90
35647;DHT22;28680;45.642;13.756;2023-12-04T07:07:32;2.60;99.90
35647;DHT22;28680;45.642;13.756;2023-12-04T07:09:58;2.60;99.90
35647;DHT22;28680;45.642;13.756;2023-12-04T07:12:24;2.60;99.90
35647;DHT22;28680;45.642;13.756;2023-12-04T07:14:50;2.70;99.90
35647;DHT22;28680;45.642;13.756;2023-12-04T07:17:16;2.70;99.90
35647;DHT22;28680;45.642;13.756;2023-12-04T07:19:42;2.90;99.90
35647;DHT22;28680;45.642;13.756;2023-12-04T07:22:07;2.90;99.90
35647;DHT22;28680;45.642;13.756;2023-12-04T07:24:33;2.90;99.90
35647;DHT22;28680;45.642;13.756;2023-12-04T07:26:59;3.00;99.90
35647;DHT22;28680;45.642;13.756;2023-12-04T07:29:25;3.10;99.90
35647;DHT22;28680;45.642;13.756;2023-12-04T07:31:51;3.20;99.90
35647;DHT22;28680;45.642;13.756;2023-12-04T07:34:17;3.20;99.90
35647;DHT22;28680;45.642;13.756;2023-12-04T07:36:43;3.20;99.90
35647;DHT22;28680;45.642;13.756;2023-12-04T07:39:10;3.20;99.90
35647;DHT22;28680;45.642;13.756;2023-12-04T07:41:36;3.30;99.90
35647;DHT22;28680;45.642;13.756;2023-12-04T07:44:03;3.40;99.90
35647;DHT22;28680;45.642;13.756;2023-12-04T07:46:29;3.70;99.90
35647;DHT22;28680;45.642;13.756;2023-12-04T07:48:55;4.20;99.90
35647;DHT22;28680;45.642;13.756;2023-12-04T07:51:21;4.80;99.90
35647;DHT22;28680;45.642;13.756;2023-12-04T07:53:47;5.10;99.90
35647;DHT22;28680;45.642;13.756;2023-12-04T07:56:13;5.20;99.90
35647;DHT22;28680;45.642;13.756;2023-12-04T07:58:39;5.10;99.90
35647;DHT22;28680;45.642;13.756;2023-12-04T08:01:05;5.00;99.90
35647;DHT22;28680;45.642;13.756;2023-12-04T08:03:31;4.90;99.90
35647;DHT22;28680;45.642;13.756;2023-12-04T08:05:57;5.30;99.90
35647;DHT22;28680;45.642;13.756;2023-12-04T08:08:24;6.20;99.90
35647;DHT22;28680;45.642;13.756;2023-12-04T08:10:50;6.80;99.90
35647;DHT22;28680;45.642;13.756;2023-12-04T08:13:16;7.20;99.90
35647;DHT22;28680;45.642;13.756;2023-12-04T08:15:43;7.20;99.90
35647;DHT22;28680;45.642;13.756;2023-12-04T08:18:09;7.40;99.90
35647;DHT22;28680;45.642;13.756;2023-12-04T08:20:35;7.60;99.90
35647;DHT22;28680;45.642;13.756;2023-12-04T08:23:01;7.70;99.90
35647;DHT22;28680;45.642;13.756;2023-12-04T08:25:27;7.40;99.90
35647;DHT22;28680;45.642;13.756;2023-12-04T08:27:53;7.60;99.90
35647;DHT22;28680;45.642;13.756;2023-12-04T08:30:18;7.80;99.90
35647;DHT22;28680;45.642;13.756;2023-12-04T08:32:44;8.10;99.90
35647;DHT22;28680;45.642;13.756;2023-12-04T08:35:10;8.60;99.90
35647;DHT22;28680;45.642;13.756;2023-12-04T08:37:36;8.80;99.90
35647;DHT22;28680;45.642;13.756;2023-12-04T08:40:01;9.20;99.90
35647;DHT22;28680;45.642;13.756;2023-12-04T08:42:29;9.90;99.90
35647;DHT22;28680;45.642;13.756;2023-12-04T08:44:55;10.10;99.90
35647;DHT22;28680;45.642;13.756;2023-12-04T08:47:21;10.20;99.90
35647;DHT22;28680;45.642;13.756;2023-12-04T08:49:47;10.40;99.90
35647;DHT22;28680;45.642;13.756;2023-12-04T08:52:12;10.50;99.90
35647;DHT22;28680;45.642;13.756;2023-12-04T08:54:39;10.50;99.90
35647;DHT22;28680;45.642;13.756;2023-12-04T08:57:06;10.10;99.90
35647;DHT22;28680;45.642;13.756;2023-12-04T08:59:32;10.20;99.90
35647;DHT22;28680;45.642;13.756;2023-12-04T09:01:58;9.80;99.90
35647;DHT22;28680;45.642;13.756;2023-12-04T09:04:23;9.80;99.90
35647;DHT22;28680;45.642;13.756;2023-12-04T09:06:49;10.10;99.90
35647;DHT22;28680;45.642;13.756;2023-12-04T09:09:15;10.60;99.90
35647;DHT22;28680;45.642;13.756;2023-12-04T09:11:42;10.90;99.90
35647;DHT22;28680;45.642;13.756;2023-12-04T09:14:08;11.00;99.90
35647;DHT22;28680;45.642;13.756;2023-12-04T09:16:34;10.90;99.90
35647;DHT22;28680;45.642;13.756;2023-12-04T09:19:00;11.10;99.90
35647;DHT22;28680;45.642;13.756;2023-12-04T09:21:25;11.10;99.90
35647;DHT22;28680;45.642;13.756;2023-12-04T09:23:52;10.80;99.90
35647;DHT22;28680;45.642;13.756;2023-12-04T09:26:18;10.60;99.90
35647;DHT22;28680;45.642;13.756;2023-12-04T09:28:44;10.40;99.90
35647;DHT22;28680;45.642;13.756;2023-12-04T09:31:10;10.30;99.90
35647;DHT22;28680;45.642;13.756;2023-12-04T09:33:36;10.30;99.90
35647;DHT22;28680;45.642;13.756;2023-12-04T09:36:02;10.10;99.90
35647;DHT22;28680;45.642;13.756;2023-12-04T09:38:29;10.20;99.90
35647;DHT22;28680;45.642;13.756;2023-12-04T09:40:58;10.30;99.90
35647;DHT22;28680;45.642;13.756;2023-12-04T09:43:34;10.20;99.90
35647;DHT22;28680;45.642;13.756;2023-12-04T09:46:00;10.20;99.90
35647;DHT22;28680;45.642;13.756;2023-12-04T09:48:27;10.30;99.90
35647;DHT22;28680;45.642;13.756;2023-12-04T09:50:55;10.20;99.90
35647;DHT22;28680;45.642;13.756;2023-12-04T09:53:21;10.10;99.90
35647;DHT22;28680;45.642;13.756;2023-12-04T09:55:51;10.10;99.90
35647;DHT22;28680;45.642;13.756;2023-12-04T09:58:26;10.30;99.90
35647;DHT22;28680;45.642;13.756;2023-12-04T10:00:53;10.50;99.90
35647;DHT22;28680;45.642;13.756;2023-12-04T10:03:20;10.40;99.90
35647;DHT22;28680;45.642;13.756;2023-12-04T10:05:47;10.30;99.90
35647;DHT22;28680;45.642;13.756;2023-12-04T10:08:14;10.40;99.90
35647;DHT22;28680;45.642;13.756;2023-12-04T10:10:40;10.70;99.90
35647;DHT22;28680;45.642;13.756;2023-12-04T10:13:05;11.00;99.90
35647;DHT22;28680;45.642;13.756;2023-12-04T10:15:32;11.10;99.90
35647;DHT22;28680;45.642;13.756;2023-12-04T10:17:58;11.00;99.90
35647;DHT22;28680;45.642;13.756;2023-12-04T10:20:24;10.70;99.90
35647;DHT22;28680;45.642;13.756;2023-12-04T10:22:55;10.40;99.90
35647;DHT22;28680;45.642;13.756;2023-12-04T10:25:22;10.10;99.90
35647;DHT22;28680;45.642;13.756;2023-12-04T10:27:50;9.80;99.90
35647;DHT22;28680;45.642;13.756;2023-12-04T10:30:26;9.70;99.90
35647;DHT22;28680;45.642;13.756;2023-12-04T10:33:02;9.70;99.90
35647;DHT22;28680;45.642;13.756;2023-12-04T10:35:35;9.70;99.90
35647;DHT22;28680;45.642;13.756;2023-12-04T10:38:05;9.60;99.90
35647;DHT22;28680;45.642;13.756;2023-12-04T10:40:35;9.60;99.90
35647;DHT22;28680;45.642;13.756;2023-12-04T10:43:23;9.50;99.90
35647;DHT22;28680;45.642;13.756;2023-12-04T10:45:50;9.60;99.90
35647;DHT22;28680;45.642;13.756;2023-12-04T10:48:17;9.40;99.90
35647;DHT22;28680;45.642;13.756;2023-12-04T10:50:48;9.30;99.90
35647;DHT22;28680;45.642;13.756;2023-12-04T10:53:15;9.30;99.90
35647;DHT22;28680;45.642;13.756;2023-12-04T10:55:43;9.30;99.90
35647;DHT22;28680;45.642;13.756;2023-12-04T10:58:14;9.30;99.90
35647;DHT22;28680;45.642;13.756;2023-12-04T11:00:44;9.30;99.90
35647;DHT22;28680;45.642;13.756;2023-12-04T11:03:23;9.20;99.90
35647;DHT22;28680;45.642;13.756;2023-12-04T11:05:55;9.20;99.90
35647;DHT22;28680;45.642;13.756;2023-12-04T11:08:23;9.00;99.90
35647;DHT22;28680;45.642;13.756;2023-12-04T11:10:59;9.20;99.90
35647;DHT22;28680;45.642;13.756;2023-12-04T11:13:28;9.40;99.90
35647;DHT22;28680;45.642;13.756;2023-12-04T11:18:44;9.50;99.90
35647;DHT22;28680;45.642;13.756;2023-12-04T11:21:13;9.70;99.90
35647;DHT22;28680;45.642;13.756;2023-12-04T11:23:42;9.90;99.90
35647;DHT22;28680;45.642;13.756;2023-12-04T11:26:09;9.90;99.90
35647;DHT22;28680;45.642;13.756;2023-12-04T11:28:36;9.90;99.90
35647;DHT22;28680;45.642;13.756;2023-12-04T11:31:04;10.40;99.90
35647;DHT22;28680;45.642;13.756;2023-12-04T11:33:37;11.20;99.90
35647;DHT22;28680;45.642;13.756;2023-12-04T11:36:13;11.40;99.90
35647;DHT22;28680;45.642;13.756;2023-12-04T11:38:44;11.50;99.90
35647;DHT22;28680;45.642;13.756;2023-12-04T11:41:21;11.40;99.90
35647;DHT22;28680;45.642;13.756;2023-12-04T11:43:47;11.30;99.90
35647;DHT22;28680;45.642;13.756;2023-12-04T11:46:20;11.50;99.90
35647;DHT22;28680;45.642;13.756;2023-12-04T11:51:51;13.00;99.90
35647;DHT22;28680;45.642;13.756;2023-12-04T11:54:19;13.10;99.90
35647;DHT22;28680;45.642;13.756;2023-12-04T11:59:38;13.90;99.90
35647;DHT22;28680;45.642;13.756;2023-12-04T12:02:08;13.90;99.90
35647;DHT22;28680;45.642;13.756;2023-12-04T12:04:34;13.50;99.90
35647;DHT22;28680;45.642;13.756;2023-12-04T12:07:01;12.30;99.90
35647;DHT22;28680;45.642;13.756;2023-12-04T12:09:28;11.80;99.90
35647;DHT22;28680;45.642;13.756;2023-12-04T12:11:54;11.50;99.90
35647;DHT22;28680;45.642;13.756;2023-12-04T12:14:21;10.90;99.90
35647;DHT22;28680;45.642;13.756;2023-12-04T12:16:47;10.70;99.90
35647;DHT22;28680;45.642;13.756;2023-12-04T12:19:13;10.50;99.90
35647;DHT22;28680;45.642;13.756;2023-12-04T12:21:40;10.20;99.90
35647;DHT22;28680;45.642;13.756;2023-12-04T12:24:06;10.10;99.90
35647;DHT22;28680;45.642;13.756;2023-12-04T12:26:33;9.90;99.90
35647;DHT22;28680;45.642;13.756;2023-12-04T12:28:59;9.80;99.90
35647;DHT22;28680;45.642;13.756;2023-12-04T12:31:24;9.60;99.90
35647;DHT22;28680;45.642;13.756;2023-12-04T12:33:51;9.60;99.90
35647;DHT22;28680;45.642;13.756;2023-12-04T12:36:17;9.60;99.90
35647;DHT22;28680;45.642;13.756;2023-12-04T12:38:45;9.50;99.90
35647;DHT22;28680;45.642;13.756;2023-12-04T12:41:18;9.50;99.90
35647;DHT22;28680;45.642;13.756;2023-12-04T12:43:44;9.40;99.90
35647;DHT22;28680;45.642;13.756;2023-12-04T12:46:11;9.60;99.90
35647;DHT22;28680;45.642;13.756;2023-12-04T12:48:36;9.50;99.90
35647;DHT22;28680;45.642;13.756;2023-12-04T12:51:03;9.40;99.90
35647;DHT22;28680;45.642;13.756;2023-12-04T12:53:31;9.40;99.90
35647;DHT22;28680;45.642;13.756;2023-12-04T12:55:59;9.40;99.90
35647;DHT22;28680;45.642;13.756;2023-12-04T12:58:25;9.30;99.90
35647;DHT22;28680;45.642;13.756;2023-12-04T13:00:51;9.20;99.90
35647;DHT22;28680;45.642;13.756;2023-12-04T13:03:17;9.30;99.90
35647;DHT22;28680;45.642;13.756;2023-12-04T13:05:43;9.30;99.90
35647;DHT22;28680;45.642;13.756;2023-12-04T13:08:09;9.20;99.90
35647;DHT22;28680;45.642;13.756;2023-12-04T13:10:37;9.30;99.90
35647;DHT22;28680;45.642;13.756;2023-12-04T13:13:03;9.50;99.90
35647;DHT22;28680;45.642;13.756;2023-12-04T13:15:29;9.70;99.90
35647;DHT22;28680;45.642;13.756;2023-12-04T13:17:55;9.90;99.90
35647;DHT22;28680;45.642;13.756;2023-12-04T13:20:22;9.90;99.90
35647;DHT22;28680;45.642;13.756;2023-12-04T13:22:49;10.00;99.90
35647;DHT22;28680;45.642;13.756;2023-12-04T13:25:15;9.90;99.90
35647;DHT22;28680;45.642;13.756;2023-12-04T13:27:41;9.80;99.90
35647;DHT22;28680;45.642;13.756;2023-12-04T13:30:07;9.80;99.90
35647;DHT22;28680;45.642;13.756;2023-12-04T13:32:39;9.60;99.90
35647;DHT22;28680;45.642;13.756;2023-12-04T13:35:06;9.50;99.90
35647;DHT22;28680;45.642;13.756;2023-12-04T13:37:36;9.50;99.90
35647;DHT22;28680;45.642;13.756;2023-12-04T13:40:04;9.50;99.90
35647;DHT22;28680;45.642;13.756;2023-12-04T13:42:35;9.60;99.90
35647;DHT22;28680;45.642;13.756;2023-12-04T13:45:20;9.60;99.90
35647;DHT22;28680;45.642;13.756;2023-12-04T13:47:49;9.60;99.90
35647;DHT22;28680;45.642;13.756;2023-12-04T13:50:15;9.50;99.90
35647;DHT22;28680;45.642;13.756;2023-12-04T13:52:41;9.50;99.90
35647;DHT22;28680;45.642;13.756;2023-12-04T13:55:09;9.50;99.90
35647;DHT22;28680;45.642;13.756;2023-12-04T13:57:59;9.60;99.90
35647;DHT22;28680;45.642;13.756;2023-12-04T14:00:26;9.50;99.90
35647;DHT22;28680;45.642;13.756;2023-12-04T14:02:51;9.50;99.90
35647;DHT22;28680;45.642;13.756;2023-12-04T14:05:33;9.40;99.90
35647;DHT22;28680;45.642;13.756;2023-12-04T14:08:00;9.40;99.90
35647;DHT22;28680;45.642;13.756;2023-12-04T14:10:26;9.20;99.90
35647;DHT22;28680;45.642;13.756;2023-12-04T14:12:53;9.20;99.90
35647;DHT22;28680;45.642;13.756;2023-12-04T14:15:19;9.10;99.90
35647;DHT22;28680;45.642;13.756;2023-12-04T14:17:48;9.10;99.90
35647;DHT22;28680;45.642;13.756;2023-12-04T14:20:14;8.90;99.90
35647;DHT22;28680;45.642;13.756;2023-12-04T14:22:44;8.80;99.90
35647;DHT22;28680;45.642;13.756;2023-12-04T14:25:13;8.80;99.90
35647;DHT22;28680;45.642;13.756;2023-12-04T14:27:39;8.60;99.90
35647;DHT22;28680;45.642;13.756;2023-12-04T14:30:07;8.50;99.90
35647;DHT22;28680;45.642;13.756;2023-12-04T14:32:34;8.50;99.90
35647;DHT22;28680;45.642;13.756;2023-12-04T14:35:00;8.60;99.90
35647;DHT22;28680;45.642;13.756;2023-12-04T14:37:26;8.60;99.90
35647;DHT22;28680;45.642;13.756;2023-12-04T14:39:52;8.70;99.90
35647;DHT22;28680;45.642;13.756;2023-12-04T14:42:17;8.60;99.90
35647;DHT22;28680;45.642;13.756;2023-12-04T14:44:43;8.60;99.90
35647;DHT22;28680;45.642;13.756;2023-12-04T14:47:09;8.60;99.90
35647;DHT22;28680;45.642;13.756;2023-12-04T14:49:36;8.60;99.90
35647;DHT22;28680;45.642;13.756;2023-12-04T14:52:02;8.50;99.90
35647;DHT22;28680;45.642;13.756;2023-12-04T14:54:29;8.50;99.90
35647;DHT22;28680;45.642;13.756;2023-12-04T14:57:10;8.50;99.90
35647;DHT22;28680;45.642;13.756;2023-12-04T14:59:55;8.50;99.90
35647;DHT22;28680;45.642;13.756;2023-12-04T15:02:39;8.50;99.90
35647;DHT22;28680;45.642;13.756;2023-12-04T15:05:24;8.50;99.90
35647;DHT22;28680;45.642;13.756;2023-12-04T15:08:08;8.50;99.90
35647;DHT22;28680;45.642;13.756;2023-12-04T15:10:50;8.50;99.90
35647;DHT22;28680;45.642;13.756;2023-12-04T15:13:34;8.40;99.90
35647;DHT22;28680;45.642;13.756;2023-12-04T15:16:12;8.30;99.90
35647;DHT22;28680;45.642;13.756;2023-12-04T15:19:00;8.40;99.90
35647;DHT22;28680;45.642;13.756;2023-12-04T15:21:52;8.40;99.90
35647;DHT22;28680;45.642;13.756;2023-12-04T15:24:18;8.50;99.90
35647;DHT22;28680;45.642;13.756;2023-12-04T15:26:44;8.40;99.90
35647;DHT22;28680;45.642;13.756;2023-12-04T15:29:10;8.40;99.90
35647;DHT22;28680;45.642;13.756;2023-12-04T15:31:37;8.40;99.90
35647;DHT22;28680;45.642;13.756;2023-12-04T15:34:02;8.40;99.90
35647;DHT22;28680;45.642;13.756;2023-12-04T15:36:29;8.40;99.90
35647;DHT22;28680;45.642;13.756;2023-12-04T15:38:55;8.40;99.90